sensor_id;sensor_type;location;lat;lon;timestamp;P1;durP1;ratioP1;P2;durP2;ratioP2
10335;SDS011;5213;53.548;9.930;2022-11-30T00:02:02;51.42;;;29.75;;
10335;SDS011;5213;53.548;9.930;2022-11-30T00:04:28;55.42;;;28.20;;
10335;SDS011;5213;53.548;9.930;2022-11-30T00:06:54;48.83;;;28.77;;
10335;SDS011;5213;53.548;9.930;2022-11-30T00:09:21;55.28;;;29.52;;
10335;SDS011;5213;53.548;9.930;2022-11-30T00:11:48;56.55;;;29.48;;
10335;SDS011;5213;53.548;9.930;2022-11-30T00:14:14;52.70;;;28.77;;
10335;SDS011;5213;53.548;9.930;2022-11-30T00:16:40;56.63;;;30.20;;
10335;SDS011;5213;53.548;9.930;2022-11-30T00:19:06;55.70;;;30.13;;
10335;SDS011;5213;53.548;9.930;2022-11-30T00:21:32;63.10;;;30.33;;
10335;SDS011;5213;53.548;9.930;2022-11-30T00:23:58;54.83;;;30.40;;
10335;SDS011;5213;53.548;9.930;2022-11-30T00:26:24;58.35;;;29.73;;
10335;SDS011;5213;53.548;9.930;2022-11-30T00:28:50;54.92;;;31.48;;
10335;SDS011;5213;53.548;9.930;2022-11-30T00:31:17;53.78;;;29.50;;
10335;SDS011;5213;53.548;9.930;2022-11-30T00:33:43;61.35;;;30.73;;
10335;SDS011;5213;53.548;9.930;2022-11-30T00:36:11;58.88;;;31.25;;
10335;SDS011;5213;53.548;9.930;2022-11-30T00:38:37;56.03;;;30.25;;
10335;SDS011;5213;53.548;9.930;2022-11-30T00:41:03;54.65;;;29.60;;
10335;SDS011;5213;53.548;9.930;2022-11-30T00:43:29;52.85;;;29.27;;
10335;SDS011;5213;53.548;9.930;2022-11-30T00:45:56;54.75;;;30.65;;
10335;SDS011;5213;53.548;9.930;2022-11-30T00:48:22;57.58;;;29.67;;
10335;SDS011;5213;53.548;9.930;2022-11-30T00:50:48;55.10;;;30.30;;
10335;SDS011;5213;53.548;9.930;2022-11-30T00:53:15;52.22;;;29.85;;
10335;SDS011;5213;53.548;9.930;2022-11-30T00:55:42;57.55;;;30.17;;
10335;SDS011;5213;53.548;9.930;2022-11-30T00:58:08;57.63;;;30.33;;
10335;SDS011;5213;53.548;9.930;2022-11-30T01:00:34;54.75;;;29.42;;
10335;SDS011;5213;53.548;9.930;2022-11-30T01:03:00;55.88;;;30.05;;
10335;SDS011;5213;53.548;9.930;2022-11-30T01:05:29;46.40;;;28.13;;
10335;SDS011;5213;53.548;9.930;2022-11-30T01:07:58;52.10;;;28.77;;
10335;SDS011;5213;53.548;9.930;2022-11-30T01:10:24;54.70;;;28.15;;
10335;SDS011;5213;53.548;9.930;2022-11-30T01:12:50;51.00;;;27.58;;
10335;SDS011;5213;53.548;9.930;2022-11-30T01:15:16;50.75;;;27.83;;
10335;SDS011;5213;53.548;9.930;2022-11-30T01:17:42;52.70;;;29.17;;
10335;SDS011;5213;53.548;9.930;2022-11-30T01:20:08;49.75;;;28.85;;
10335;SDS011;5213;53.548;9.930;2022-11-30T01:22:35;49.47;;;28.05;;
10335;SDS011;5213;53.548;9.930;2022-11-30T01:25:01;51.60;;;28.95;;
10335;SDS011;5213;53.548;9.930;2022-11-30T01:27:27;50.05;;;27.95;;
10335;SDS011;5213;53.548;9.930;2022-11-30T01:29:53;49.50;;;27.88;;
10335;SDS011;5213;53.548;9.930;2022-11-30T01:32:20;50.30;;;26.88;;
10335;SDS011;5213;53.548;9.930;2022-11-30T01:34:46;54.25;;;27.77;;
10335;SDS011;5213;53.548;9.930;2022-11-30T01:37:12;49.25;;;27.45;;
10335;SDS011;5213;53.548;9.930;2022-11-30T01:39:38;50.15;;;27.80;;
10335;SDS011;5213;53.548;9.930;2022-11-30T01:42:05;47.85;;;27.48;;
10335;SDS011;5213;53.548;9.930;2022-11-30T01:46:58;49.80;;;28.15;;
10335;SDS011;5213;53.548;9.930;2022-11-30T01:49:29;51.75;;;27.60;;
10335;SDS011;5213;53.548;9.930;2022-11-30T01:52:03;54.63;;;28.75;;
10335;SDS011;5213;53.548;9.930;2022-11-30T01:55:13;58.60;;;29.17;;
10335;SDS011;5213;53.548;9.930;2022-11-30T01:59:49;56.40;;;29.88;;
10335;SDS011;5213;53.548;9.930;2022-11-30T02:02:17;59.78;;;29.80;;
10335;SDS011;5213;53.548;9.930;2022-11-30T02:04:44;56.92;;;29.42;;
10335;SDS011;5213;53.548;9.930;2022-11-30T02:07:10;62.28;;;31.10;;
10335;SDS011;5213;53.548;9.930;2022-11-30T02:09:39;58.17;;;29.27;;
10335;SDS011;5213;53.548;9.930;2022-11-30T02:12:07;64.35;;;31.38;;
10335;SDS011;5213;53.548;9.930;2022-11-30T02:14:36;58.45;;;30.95;;
10335;SDS011;5213;53.548;9.930;2022-11-30T02:17:16;60.15;;;30.33;;
10335;SDS011;5213;53.548;9.930;2022-11-30T02:29:42;59.05;;;30.17;;
10335;SDS011;5213;53.548;9.930;2022-11-30T02:34:37;59.35;;;30.45;;
10335;SDS011;5213;53.548;9.930;2022-11-30T02:37:05;62.05;;;31.48;;
10335;SDS011;5213;53.548;9.930;2022-11-30T02:39:32;61.58;;;31.27;;
10335;SDS011;5213;53.548;9.930;2022-11-30T02:41:58;64.78;;;32.83;;
10335;SDS011;5213;53.548;9.930;2022-11-30T02:44:24;58.60;;;30.70;;
10335;SDS011;5213;53.548;9.930;2022-11-30T02:51:52;56.17;;;31.27;;
10335;SDS011;5213;53.548;9.930;2022-11-30T02:54:19;61.42;;;31.92;;
10335;SDS011;5213;53.548;9.930;2022-11-30T02:56:46;60.33;;;30.42;;
10335;SDS011;5213;53.548;9.930;2022-11-30T02:59:12;65.03;;;31.42;;
10335;SDS011;5213;53.548;9.930;2022-11-30T03:01:38;63.72;;;31.00;;
10335;SDS011;5213;53.548;9.930;2022-11-30T03:04:04;64.05;;;33.42;;
10335;SDS011;5213;53.548;9.930;2022-11-30T03:06:30;63.72;;;32.58;;
10335;SDS011;5213;53.548;9.930;2022-11-30T03:08:56;66.85;;;33.97;;
10335;SDS011;5213;53.548;9.930;2022-11-30T03:11:22;67.47;;;32.90;;
10335;SDS011;5213;53.548;9.930;2022-11-30T03:13:49;68.72;;;33.22;;
10335;SDS011;5213;53.548;9.930;2022-11-30T03:16:15;64.20;;;31.50;;
10335;SDS011;5213;53.548;9.930;2022-11-30T03:18:41;63.30;;;32.92;;
10335;SDS011;5213;53.548;9.930;2022-11-30T03:21:09;63.67;;;32.80;;
10335;SDS011;5213;53.548;9.930;2022-11-30T03:23:35;66.03;;;33.95;;
10335;SDS011;5213;53.548;9.930;2022-11-30T03:26:01;62.78;;;32.15;;
10335;SDS011;5213;53.548;9.930;2022-11-30T03:28:27;59.60;;;31.00;;
10335;SDS011;5213;53.548;9.930;2022-11-30T03:30:54;64.82;;;32.50;;
10335;SDS011;5213;53.548;9.930;2022-11-30T03:33:20;63.42;;;32.20;;
10335;SDS011;5213;53.548;9.930;2022-11-30T03:35:46;68.57;;;32.33;;
10335;SDS011;5213;53.548;9.930;2022-11-30T03:38:12;64.47;;;32.92;;
10335;SDS011;5213;53.548;9.930;2022-11-30T03:40:38;61.20;;;31.65;;
10335;SDS011;5213;53.548;9.930;2022-11-30T03:43:04;66.32;;;32.33;;
10335;SDS011;5213;53.548;9.930;2022-11-30T03:45:30;63.55;;;31.83;;
10335;SDS011;5213;53.548;9.930;2022-11-30T03:47:56;61.95;;;31.20;;
10335;SDS011;5213;53.548;9.930;2022-11-30T03:50:22;65.30;;;31.90;;
10335;SDS011;5213;53.548;9.930;2022-11-30T03:52:48;67.07;;;33.67;;
10335;SDS011;5213;53.548;9.930;2022-11-30T03:55:14;67.18;;;33.25;;
10335;SDS011;5213;53.548;9.930;2022-11-30T03:57:40;66.63;;;32.47;;
10335;SDS011;5213;53.548;9.930;2022-11-30T04:00:06;70.10;;;32.35;;
10335;SDS011;5213;53.548;9.930;2022-11-30T04:02:33;60.58;;;31.70;;
10335;SDS011;5213;53.548;9.930;2022-11-30T04:04:59;69.85;;;32.95;;
10335;SDS011;5213;53.548;9.930;2022-11-30T04:07:25;69.25;;;32.20;;
10335;SDS011;5213;53.548;9.930;2022-11-30T04:09:51;66.43;;;31.20;;
10335;SDS011;5213;53.548;9.930;2022-11-30T04:12:17;71.10;;;32.05;;
10335;SDS011;5213;53.548;9.930;2022-11-30T04:14:43;70.47;;;33.80;;
10335;SDS011;5213;53.548;9.930;2022-11-30T04:17:09;69.72;;;32.63;;
10335;SDS011;5213;53.548;9.930;2022-11-30T04:19:35;70.35;;;33.17;;
10335;SDS011;5213;53.548;9.930;2022-11-30T04:22:01;66.85;;;32.47;;
10335;SDS011;5213;53.548;9.930;2022-11-30T04:24:27;67.93;;;33.38;;
10335;SDS011;5213;53.548;9.930;2022-11-30T04:26:53;69.32;;;33.65;;
10335;SDS011;5213;53.548;9.930;2022-11-30T04:29:19;68.20;;;32.15;;
10335;SDS011;5213;53.548;9.930;2022-11-30T04:31:45;78.22;;;34.20;;
10335;SDS011;5213;53.548;9.930;2022-11-30T04:34:11;71.30;;;33.05;;
10335;SDS011;5213;53.548;9.930;2022-11-30T04:36:37;67.93;;;33.15;;
10335;SDS011;5213;53.548;9.930;2022-11-30T04:39:03;72.43;;;34.17;;
10335;SDS011;5213;53.548;9.930;2022-11-30T04:41:29;71.65;;;32.55;;
10335;SDS011;5213;53.548;9.930;2022-11-30T04:43:55;70.43;;;33.00;;
10335;SDS011;5213;53.548;9.930;2022-11-30T04:46:21;73.68;;;32.80;;
10335;SDS011;5213;53.548;9.930;2022-11-30T04:48:47;65.43;;;32.60;;
10335;SDS011;5213;53.548;9.930;2022-11-30T04:51:13;68.22;;;31.98;;
10335;SDS011;5213;53.548;9.930;2022-11-30T04:53:39;68.30;;;32.28;;
10335;SDS011;5213;53.548;9.930;2022-11-30T04:56:06;63.40;;;31.10;;
10335;SDS011;5213;53.548;9.930;2022-11-30T04:58:32;68.53;;;31.67;;
10335;SDS011;5213;53.548;9.930;2022-11-30T05:00:58;62.95;;;30.45;;
10335;SDS011;5213;53.548;9.930;2022-11-30T05:03:24;66.05;;;32.25;;
10335;SDS011;5213;53.548;9.930;2022-11-30T05:05:50;67.03;;;31.90;;
10335;SDS011;5213;53.548;9.930;2022-11-30T05:08:16;71.93;;;32.28;;
10335;SDS011;5213;53.548;9.930;2022-11-30T05:10:42;66.40;;;31.27;;
10335;SDS011;5213;53.548;9.930;2022-11-30T05:13:08;76.40;;;32.15;;
10335;SDS011;5213;53.548;9.930;2022-11-30T05:15:34;73.75;;;33.17;;
10335;SDS011;5213;53.548;9.930;2022-11-30T05:18:00;67.53;;;31.80;;
10335;SDS011;5213;53.548;9.930;2022-11-30T05:20:27;71.82;;;31.88;;
10335;SDS011;5213;53.548;9.930;2022-11-30T05:22:53;71.38;;;30.75;;
10335;SDS011;5213;53.548;9.930;2022-11-30T05:25:19;67.78;;;30.45;;
10335;SDS011;5213;53.548;9.930;2022-11-30T05:27:45;65.38;;;31.50;;
10335;SDS011;5213;53.548;9.930;2022-11-30T05:30:11;65.95;;;31.27;;
10335;SDS011;5213;53.548;9.930;2022-11-30T05:32:37;63.53;;;30.67;;
10335;SDS011;5213;53.548;9.930;2022-11-30T05:35:03;69.60;;;31.50;;
10335;SDS011;5213;53.548;9.930;2022-11-30T05:37:29;68.18;;;30.45;;
10335;SDS011;5213;53.548;9.930;2022-11-30T05:39:55;60.05;;;29.35;;
10335;SDS011;5213;53.548;9.930;2022-11-30T05:42:21;69.38;;;29.75;;
10335;SDS011;5213;53.548;9.930;2022-11-30T05:44:47;62.50;;;29.35;;
10335;SDS011;5213;53.548;9.930;2022-11-30T05:47:13;63.80;;;30.30;;
10335;SDS011;5213;53.548;9.930;2022-11-30T05:49:40;64.97;;;29.83;;
10335;SDS011;5213;53.548;9.930;2022-11-30T05:52:06;62.33;;;29.05;;
10335;SDS011;5213;53.548;9.930;2022-11-30T05:54:32;67.07;;;31.23;;
10335;SDS011;5213;53.548;9.930;2022-11-30T05:56:58;66.82;;;30.55;;
10335;SDS011;5213;53.548;9.930;2022-11-30T05:59:24;64.57;;;30.25;;
10335;SDS011;5213;53.548;9.930;2022-11-30T06:01:51;62.85;;;29.30;;
10335;SDS011;5213;53.548;9.930;2022-11-30T06:04:17;69.05;;;29.77;;
10335;SDS011;5213;53.548;9.930;2022-11-30T06:06:43;63.97;;;29.40;;
10335;SDS011;5213;53.548;9.930;2022-11-30T06:09:09;59.50;;;28.88;;
10335;SDS011;5213;53.548;9.930;2022-11-30T06:11:35;58.55;;;29.00;;
10335;SDS011;5213;53.548;9.930;2022-11-30T06:14:01;63.35;;;29.73;;
10335;SDS011;5213;53.548;9.930;2022-11-30T06:16:28;62.75;;;29.33;;
10335;SDS011;5213;53.548;9.930;2022-11-30T06:18:54;60.70;;;28.70;;
10335;SDS011;5213;53.548;9.930;2022-11-30T06:21:20;66.65;;;30.45;;
10335;SDS011;5213;53.548;9.930;2022-11-30T06:23:46;62.35;;;29.02;;
10335;SDS011;5213;53.548;9.930;2022-11-30T06:26:12;60.42;;;28.45;;
10335;SDS011;5213;53.548;9.930;2022-11-30T06:28:38;62.08;;;29.15;;
10335;SDS011;5213;53.548;9.930;2022-11-30T06:31:05;56.92;;;27.75;;
10335;SDS011;5213;53.548;9.930;2022-11-30T06:33:32;53.05;;;27.20;;
10335;SDS011;5213;53.548;9.930;2022-11-30T06:35:58;53.75;;;26.35;;
10335;SDS011;5213;53.548;9.930;2022-11-30T06:38:24;57.65;;;28.17;;
10335;SDS011;5213;53.548;9.930;2022-11-30T06:40:51;55.40;;;28.20;;
10335;SDS011;5213;53.548;9.930;2022-11-30T06:43:17;59.67;;;28.77;;
10335;SDS011;5213;53.548;9.930;2022-11-30T06:45:44;63.88;;;29.70;;
10335;SDS011;5213;53.548;9.930;2022-11-30T06:48:11;64.32;;;29.38;;
10335;SDS011;5213;53.548;9.930;2022-11-30T06:50:37;64.82;;;29.73;;
10335;SDS011;5213;53.548;9.930;2022-11-30T06:53:03;60.28;;;28.15;;
10335;SDS011;5213;53.548;9.930;2022-11-30T06:55:29;57.95;;;28.40;;
10335;SDS011;5213;53.548;9.930;2022-11-30T06:58:09;50.72;;;27.00;;
10335;SDS011;5213;53.548;9.930;2022-11-30T07:00:35;54.88;;;26.80;;
10335;SDS011;5213;53.548;9.930;2022-11-30T07:03:02;54.95;;;26.40;;
10335;SDS011;5213;53.548;9.930;2022-11-30T07:05:28;54.97;;;27.20;;
10335;SDS011;5213;53.548;9.930;2022-11-30T07:07:54;54.00;;;28.05;;
10335;SDS011;5213;53.548;9.930;2022-11-30T07:10:20;61.05;;;29.05;;
10335;SDS011;5213;53.548;9.930;2022-11-30T07:12:47;72.13;;;30.33;;
10335;SDS011;5213;53.548;9.930;2022-11-30T07:15:13;58.90;;;29.40;;
10335;SDS011;5213;53.548;9.930;2022-11-30T07:17:39;63.75;;;30.25;;
10335;SDS011;5213;53.548;9.930;2022-11-30T07:20:05;64.68;;;28.85;;
10335;SDS011;5213;53.548;9.930;2022-11-30T07:22:31;64.47;;;29.50;;
10335;SDS011;5213;53.548;9.930;2022-11-30T07:24:57;63.53;;;28.50;;
10335;SDS011;5213;53.548;9.930;2022-11-30T07:27:42;62.90;;;30.50;;
10335;SDS011;5213;53.548;9.930;2022-11-30T07:30:08;63.33;;;30.10;;
10335;SDS011;5213;53.548;9.930;2022-11-30T07:32:34;64.53;;;29.75;;
10335;SDS011;5213;53.548;9.930;2022-11-30T07:35:00;63.78;;;29.25;;
10335;SDS011;5213;53.548;9.930;2022-11-30T07:37:26;70.82;;;30.73;;
10335;SDS011;5213;53.548;9.930;2022-11-30T07:39:53;71.10;;;29.75;;
10335;SDS011;5213;53.548;9.930;2022-11-30T07:42:19;66.97;;;29.70;;
10335;SDS011;5213;53.548;9.930;2022-11-30T07:44:46;59.13;;;27.08;;
10335;SDS011;5213;53.548;9.930;2022-11-30T07:47:13;58.50;;;28.60;;
10335;SDS011;5213;53.548;9.930;2022-11-30T07:49:39;64.03;;;29.05;;
10335;SDS011;5213;53.548;9.930;2022-11-30T07:52:06;60.38;;;27.08;;
10335;SDS011;5213;53.548;9.930;2022-11-30T07:54:32;50.92;;;26.88;;
10335;SDS011;5213;53.548;9.930;2022-11-30T07:56:58;59.17;;;28.10;;
10335;SDS011;5213;53.548;9.930;2022-11-30T07:59:24;54.45;;;27.77;;
10335;SDS011;5213;53.548;9.930;2022-11-30T08:01:50;56.95;;;27.75;;
10335;SDS011;5213;53.548;9.930;2022-11-30T08:04:16;55.05;;;26.23;;
10335;SDS011;5213;53.548;9.930;2022-11-30T08:06:42;53.22;;;27.30;;
10335;SDS011;5213;53.548;9.930;2022-11-30T08:09:11;54.50;;;26.05;;
10335;SDS011;5213;53.548;9.930;2022-11-30T08:11:38;56.70;;;27.35;;
10335;SDS011;5213;53.548;9.930;2022-11-30T08:14:04;53.58;;;27.02;;
10335;SDS011;5213;53.548;9.930;2022-11-30T08:16:34;49.45;;;26.17;;
10335;SDS011;5213;53.548;9.930;2022-11-30T08:19:00;55.75;;;25.38;;
10335;SDS011;5213;53.548;9.930;2022-11-30T08:21:26;54.53;;;26.75;;
10335;SDS011;5213;53.548;9.930;2022-11-30T08:23:53;50.20;;;25.10;;
10335;SDS011;5213;53.548;9.930;2022-11-30T08:26:24;48.60;;;24.73;;
10335;SDS011;5213;53.548;9.930;2022-11-30T08:28:50;46.90;;;26.13;;
10335;SDS011;5213;53.548;9.930;2022-11-30T08:31:18;44.88;;;24.10;;
10335;SDS011;5213;53.548;9.930;2022-11-30T08:33:44;45.05;;;24.20;;
10335;SDS011;5213;53.548;9.930;2022-11-30T08:36:18;47.10;;;25.08;;
10335;SDS011;5213;53.548;9.930;2022-11-30T08:38:45;43.50;;;24.00;;
10335;SDS011;5213;53.548;9.930;2022-11-30T08:41:12;45.40;;;23.67;;
10335;SDS011;5213;53.548;9.930;2022-11-30T08:43:39;45.08;;;23.63;;
10335;SDS011;5213;53.548;9.930;2022-11-30T08:46:06;40.97;;;23.52;;
10335;SDS011;5213;53.548;9.930;2022-11-30T08:48:32;37.65;;;22.42;;
10335;SDS011;5213;53.548;9.930;2022-11-30T08:51:02;38.90;;;21.73;;
10335;SDS011;5213;53.548;9.930;2022-11-30T08:53:29;38.50;;;21.52;;
10335;SDS011;5213;53.548;9.930;2022-11-30T08:55:56;42.13;;;21.30;;
10335;SDS011;5213;53.548;9.930;2022-11-30T08:58:22;39.67;;;23.75;;
10335;SDS011;5213;53.548;9.930;2022-11-30T09:00:48;40.65;;;21.15;;
10335;SDS011;5213;53.548;9.930;2022-11-30T09:03:14;38.28;;;21.75;;
10335;SDS011;5213;53.548;9.930;2022-11-30T09:05:40;38.50;;;22.27;;
10335;SDS011;5213;53.548;9.930;2022-11-30T09:08:06;38.75;;;21.83;;
10335;SDS011;5213;53.548;9.930;2022-11-30T09:10:32;36.40;;;20.75;;
10335;SDS011;5213;53.548;9.930;2022-11-30T09:12:58;36.50;;;21.98;;
10335;SDS011;5213;53.548;9.930;2022-11-30T09:15:24;33.58;;;21.45;;
10335;SDS011;5213;53.548;9.930;2022-11-30T09:17:50;36.78;;;20.38;;
10335;SDS011;5213;53.548;9.930;2022-11-30T09:20:16;37.50;;;21.90;;
10335;SDS011;5213;53.548;9.930;2022-11-30T09:22:42;37.38;;;20.77;;
10335;SDS011;5213;53.548;9.930;2022-11-30T09:25:08;35.17;;;21.13;;
10335;SDS011;5213;53.548;9.930;2022-11-30T09:27:34;31.33;;;20.33;;
10335;SDS011;5213;53.548;9.930;2022-11-30T09:30:01;34.20;;;20.90;;
10335;SDS011;5213;53.548;9.930;2022-11-30T09:32:27;31.73;;;19.15;;
10335;SDS011;5213;53.548;9.930;2022-11-30T09:34:53;34.40;;;20.27;;
10335;SDS011;5213;53.548;9.930;2022-11-30T09:37:20;34.75;;;20.50;;
10335;SDS011;5213;53.548;9.930;2022-11-30T09:39:47;33.72;;;20.95;;
10335;SDS011;5213;53.548;9.930;2022-11-30T09:42:37;34.67;;;21.02;;
10335;SDS011;5213;53.548;9.930;2022-11-30T09:45:16;34.67;;;21.33;;
10335;SDS011;5213;53.548;9.930;2022-11-30T09:50:11;31.02;;;19.67;;
10335;SDS011;5213;53.548;9.930;2022-11-30T09:52:39;32.60;;;19.25;;
10335;SDS011;5213;53.548;9.930;2022-11-30T09:55:07;32.45;;;19.70;;
10335;SDS011;5213;53.548;9.930;2022-11-30T09:57:47;32.47;;;19.95;;
10335;SDS011;5213;53.548;9.930;2022-11-30T10:00:25;32.15;;;20.02;;
10335;SDS011;5213;53.548;9.930;2022-11-30T10:02:52;34.25;;;19.45;;
10335;SDS011;5213;53.548;9.930;2022-11-30T10:05:22;31.15;;;19.27;;
10335;SDS011;5213;53.548;9.930;2022-11-30T10:10:38;27.95;;;19.20;;
10335;SDS011;5213;53.548;9.930;2022-11-30T10:23:35;29.67;;;18.85;;
10335;SDS011;5213;53.548;9.930;2022-11-30T10:26:11;29.02;;;18.48;;
10335;SDS011;5213;53.548;9.930;2022-11-30T10:31:33;27.85;;;18.10;;
10335;SDS011;5213;53.548;9.930;2022-11-30T10:36:47;25.10;;;17.48;;
10335;SDS011;5213;53.548;9.930;2022-11-30T10:41:54;30.25;;;19.33;;
10335;SDS011;5213;53.548;9.930;2022-11-30T10:47:16;26.95;;;18.40;;
10335;SDS011;5213;53.548;9.930;2022-11-30T10:49:49;26.98;;;18.25;;
10335;SDS011;5213;53.548;9.930;2022-11-30T10:52:24;27.30;;;18.23;;
10335;SDS011;5213;53.548;9.930;2022-11-30T10:54:52;30.65;;;19.25;;
10335;SDS011;5213;53.548;9.930;2022-11-30T10:57:19;33.80;;;20.05;;
10335;SDS011;5213;53.548;9.930;2022-11-30T10:59:47;29.38;;;18.50;;
10335;SDS011;5213;53.548;9.930;2022-11-30T11:05:06;28.52;;;19.02;;
10335;SDS011;5213;53.548;9.930;2022-11-30T11:07:32;29.38;;;17.98;;
10335;SDS011;5213;53.548;9.930;2022-11-30T11:09:59;32.40;;;19.65;;
10335;SDS011;5213;53.548;9.930;2022-11-30T11:12:26;27.52;;;18.38;;
10335;SDS011;5213;53.548;9.930;2022-11-30T11:17:40;29.52;;;19.63;;
10335;SDS011;5213;53.548;9.930;2022-11-30T11:20:25;34.50;;;20.08;;
10335;SDS011;5213;53.548;9.930;2022-11-30T11:22:51;31.55;;;19.45;;
10335;SDS011;5213;53.548;9.930;2022-11-30T11:25:21;30.63;;;19.27;;
10335;SDS011;5213;53.548;9.930;2022-11-30T11:27:51;30.65;;;20.05;;
10335;SDS011;5213;53.548;9.930;2022-11-30T11:30:26;29.67;;;18.70;;
10335;SDS011;5213;53.548;9.930;2022-11-30T11:33:00;30.95;;;19.00;;
10335;SDS011;5213;53.548;9.930;2022-11-30T11:35:39;31.38;;;19.90;;
10335;SDS011;5213;53.548;9.930;2022-11-30T11:40:52;35.13;;;21.45;;
10335;SDS011;5213;53.548;9.930;2022-11-30T11:43:19;34.03;;;20.42;;
10335;SDS011;5213;53.548;9.930;2022-11-30T11:45:50;32.35;;;19.25;;
10335;SDS011;5213;53.548;9.930;2022-11-30T11:48:36;31.88;;;21.33;;
10335;SDS011;5213;53.548;9.930;2022-11-30T11:51:04;30.10;;;19.27;;
10335;SDS011;5213;53.548;9.930;2022-11-30T11:53:36;31.67;;;20.63;;
10335;SDS011;5213;53.548;9.930;2022-11-30T11:56:06;31.92;;;20.23;;
10335;SDS011;5213;53.548;9.930;2022-11-30T11:58:54;34.15;;;21.27;;
10335;SDS011;5213;53.548;9.930;2022-11-30T12:01:31;34.35;;;21.45;;
10335;SDS011;5213;53.548;9.930;2022-11-30T12:04:02;32.13;;;21.02;;
10335;SDS011;5213;53.548;9.930;2022-11-30T12:06:31;34.30;;;19.83;;
10335;SDS011;5213;53.548;9.930;2022-11-30T12:09:12;34.03;;;20.60;;
10335;SDS011;5213;53.548;9.930;2022-11-30T12:11:44;33.53;;;19.50;;
10335;SDS011;5213;53.548;9.930;2022-11-30T12:14:14;30.60;;;18.67;;
10335;SDS011;5213;53.548;9.930;2022-11-30T12:16:56;32.13;;;19.85;;
10335;SDS011;5213;53.548;9.930;2022-11-30T12:19:31;29.27;;;18.52;;
10335;SDS011;5213;53.548;9.930;2022-11-30T12:29:58;33.22;;;20.65;;
10335;SDS011;5213;53.548;9.930;2022-11-30T12:35:21;30.55;;;20.15;;
10335;SDS011;5213;53.548;9.930;2022-11-30T12:38:06;34.40;;;20.92;;
10335;SDS011;5213;53.548;9.930;2022-11-30T12:43:47;31.85;;;19.75;;
10335;SDS011;5213;53.548;9.930;2022-11-30T12:45:54;34.25;;;21.17;;
10335;SDS011;5213;53.548;9.930;2022-11-30T12:48:36;34.72;;;20.58;;
10335;SDS011;5213;53.548;9.930;2022-11-30T12:51:07;34.92;;;21.17;;
10335;SDS011;5213;53.548;9.930;2022-11-30T12:53:37;34.42;;;21.20;;
10335;SDS011;5213;53.548;9.930;2022-11-30T13:06:28;35.55;;;20.52;;
10335;SDS011;5213;53.548;9.930;2022-11-30T13:08:58;38.00;;;22.08;;
10335;SDS011;5213;53.548;9.930;2022-11-30T13:11:28;35.58;;;22.33;;
10335;SDS011;5213;53.548;9.930;2022-11-30T13:13:55;37.92;;;22.02;;
10335;SDS011;5213;53.548;9.930;2022-11-30T13:16:22;36.60;;;22.17;;
10335;SDS011;5213;53.548;9.930;2022-11-30T13:18:49;39.00;;;22.08;;
10335;SDS011;5213;53.548;9.930;2022-11-30T13:21:25;41.22;;;23.52;;
10335;SDS011;5213;53.548;9.930;2022-11-30T13:24:02;43.83;;;24.52;;
10335;SDS011;5213;53.548;9.930;2022-11-30T13:26:33;45.88;;;24.25;;
10335;SDS011;5213;53.548;9.930;2022-11-30T13:29:05;44.58;;;23.67;;
10335;SDS011;5213;53.548;9.930;2022-11-30T13:31:40;42.53;;;23.80;;
10335;SDS011;5213;53.548;9.930;2022-11-30T13:37:16;47.72;;;25.45;;
10335;SDS011;5213;53.548;9.930;2022-11-30T13:39:49;49.00;;;25.65;;
10335;SDS011;5213;53.548;9.930;2022-11-30T13:42:23;48.03;;;26.02;;
10335;SDS011;5213;53.548;9.930;2022-11-30T13:44:52;45.05;;;25.40;;
10335;SDS011;5213;53.548;9.930;2022-11-30T13:49:58;42.85;;;23.92;;
10335;SDS011;5213;53.548;9.930;2022-11-30T14:02:59;55.08;;;26.33;;
10335;SDS011;5213;53.548;9.930;2022-11-30T14:05:43;45.60;;;25.50;;
10335;SDS011;5213;53.548;9.930;2022-11-30T14:08:14;47.92;;;25.42;;
10335;SDS011;5213;53.548;9.930;2022-11-30T14:10:41;46.00;;;24.55;;
10335;SDS011;5213;53.548;9.930;2022-11-30T14:20:33;56.13;;;27.05;;
10335;SDS011;5213;53.548;9.930;2022-11-30T14:23:02;56.30;;;28.52;;
10335;SDS011;5213;53.548;9.930;2022-11-30T14:25:29;53.53;;;26.50;;
10335;SDS011;5213;53.548;9.930;2022-11-30T14:27:56;55.80;;;27.20;;
10335;SDS011;5213;53.548;9.930;2022-11-30T14:30:22;53.35;;;26.23;;
10335;SDS011;5213;53.548;9.930;2022-11-30T14:32:54;54.17;;;27.52;;
10335;SDS011;5213;53.548;9.930;2022-11-30T14:35:21;56.15;;;26.65;;
10335;SDS011;5213;53.548;9.930;2022-11-30T14:37:54;52.50;;;26.48;;
10335;SDS011;5213;53.548;9.930;2022-11-30T14:40:22;56.83;;;26.67;;
10335;SDS011;5213;53.548;9.930;2022-11-30T14:42:50;59.10;;;28.27;;
10335;SDS011;5213;53.548;9.930;2022-11-30T14:45:23;61.05;;;28.42;;
10335;SDS011;5213;53.548;9.930;2022-11-30T14:47:51;58.00;;;27.92;;
10335;SDS011;5213;53.548;9.930;2022-11-30T14:50:24;64.88;;;28.90;;
10335;SDS011;5213;53.548;9.930;2022-11-30T14:58:36;61.15;;;28.00;;
10335;SDS011;5213;53.548;9.930;2022-11-30T15:01:14;62.75;;;29.15;;
10335;SDS011;5213;53.548;9.930;2022-11-30T15:03:41;55.60;;;26.73;;
10335;SDS011;5213;53.548;9.930;2022-11-30T15:06:12;65.85;;;28.42;;
10335;SDS011;5213;53.548;9.930;2022-11-30T15:08:50;57.58;;;28.02;;
10335;SDS011;5213;53.548;9.930;2022-11-30T15:11:17;63.53;;;27.80;;
10335;SDS011;5213;53.548;9.930;2022-11-30T15:13:44;58.97;;;25.55;;
10335;SDS011;5213;53.548;9.930;2022-11-30T15:16:29;56.30;;;27.02;;
10335;SDS011;5213;53.548;9.930;2022-11-30T15:18:56;55.15;;;25.83;;
10335;SDS011;5213;53.548;9.930;2022-11-30T15:21:31;63.75;;;27.63;;
10335;SDS011;5213;53.548;9.930;2022-11-30T15:23:58;59.13;;;26.60;;
10335;SDS011;5213;53.548;9.930;2022-11-30T15:26:29;65.07;;;28.25;;
10335;SDS011;5213;53.548;9.930;2022-11-30T15:28:58;59.38;;;27.98;;
10335;SDS011;5213;53.548;9.930;2022-11-30T15:31:27;68.53;;;28.77;;
10335;SDS011;5213;53.548;9.930;2022-11-30T15:33:57;65.18;;;28.58;;
10335;SDS011;5213;53.548;9.930;2022-11-30T15:36:23;69.95;;;28.88;;
10335;SDS011;5213;53.548;9.930;2022-11-30T15:38:51;68.13;;;29.88;;
10335;SDS011;5213;53.548;9.930;2022-11-30T15:41:21;70.00;;;29.05;;
10335;SDS011;5213;53.548;9.930;2022-11-30T15:43:52;58.17;;;27.95;;
10335;SDS011;5213;53.548;9.930;2022-11-30T15:46:26;63.33;;;29.25;;
10335;SDS011;5213;53.548;9.930;2022-11-30T15:49:02;65.03;;;27.55;;
10335;SDS011;5213;53.548;9.930;2022-11-30T15:51:35;71.25;;;29.10;;
10335;SDS011;5213;53.548;9.930;2022-11-30T15:54:01;60.72;;;28.10;;
10335;SDS011;5213;53.548;9.930;2022-11-30T15:56:27;65.88;;;29.00;;
10335;SDS011;5213;53.548;9.930;2022-11-30T15:59:01;65.88;;;28.48;;
10335;SDS011;5213;53.548;9.930;2022-11-30T16:01:28;59.85;;;28.13;;
10335;SDS011;5213;53.548;9.930;2022-11-30T16:03:59;63.72;;;29.13;;
10335;SDS011;5213;53.548;9.930;2022-11-30T16:06:27;59.83;;;27.73;;
10335;SDS011;5213;53.548;9.930;2022-11-30T16:08:54;60.75;;;27.50;;
10335;SDS011;5213;53.548;9.930;2022-11-30T16:11:20;58.80;;;26.73;;
10335;SDS011;5213;53.548;9.930;2022-11-30T16:13:46;67.00;;;29.23;;
10335;SDS011;5213;53.548;9.930;2022-11-30T16:16:13;65.43;;;28.85;;
10335;SDS011;5213;53.548;9.930;2022-11-30T16:18:39;65.47;;;27.98;;
10335;SDS011;5213;53.548;9.930;2022-11-30T16:21:08;70.95;;;29.95;;
10335;SDS011;5213;53.548;9.930;2022-11-30T16:23:35;63.70;;;29.30;;
10335;SDS011;5213;53.548;9.930;2022-11-30T16:26:01;67.68;;;28.92;;
10335;SDS011;5213;53.548;9.930;2022-11-30T16:28:27;62.55;;;29.05;;
10335;SDS011;5213;53.548;9.930;2022-11-30T16:30:53;65.45;;;29.38;;